Palmer Lake, Colorado
Current Conditions -  °F | °C
As of 10:18 AM on Wednesday 26 Nov 2014 (Local Time) from KAFF Reporting Station
Overcast Overcast  
Wind Chill: 21°   Ceiling: 700
Heat Index: 28°   Visibility: 10mi
Dew Point: 23°   Wind: 7mph
Humidity: 80%   Direction: 180°S
Pressure: 30.19"   Gusts: NA
Location:  39.12°N, 104.92°W
Report Text: KAFF 261718Z AUTO 18006KT 10SM OVC007 M02/M05 A3019 RMK AO2
Loading
Personal Weather Stations






























Interactive Weather Map New forecast layout! Learn more

10-Day Weather Forecast

Advertisements
Track Severe Weather on mobile